sensor_id;sensor_type;location;lat;lon;timestamp;temperature;humidity
61253;DHT22;47127;47.516;8.596;2023-07-30T00:01:40;18.60;99.90
61253;DHT22;47127;47.516;8.596;2023-07-30T00:04:05;18.60;99.90
61253;DHT22;47127;47.516;8.596;2023-07-30T00:06:31;18.60;99.90
61253;DHT22;47127;47.516;8.596;2023-07-30T00:08:56;18.70;99.90
61253;DHT22;47127;47.516;8.596;2023-07-30T00:11:22;18.70;99.90
61253;DHT22;47127;47.516;8.596;2023-07-30T00:13:47;18.80;99.90
61253;DHT22;47127;47.516;8.596;2023-07-30T00:16:13;18.80;99.90
61253;DHT22;47127;47.516;8.596;2023-07-30T00:18:39;18.80;99.90
61253;DHT22;47127;47.516;8.596;2023-07-30T00:21:04;18.80;99.90
61253;DHT22;47127;47.516;8.596;2023-07-30T00:23:30;18.80;99.90
61253;DHT22;47127;47.516;8.596;2023-07-30T00:25:55;18.90;99.90
61253;DHT22;47127;47.516;8.596;2023-07-30T00:28:21;18.90;99.90
61253;DHT22;47127;47.516;8.596;2023-07-30T00:30:46;19.00;99.90
61253;DHT22;47127;47.516;8.596;2023-07-30T00:33:12;19.00;99.90
61253;DHT22;47127;47.516;8.596;2023-07-30T00:35:37;19.00;99.90
61253;DHT22;47127;47.516;8.596;2023-07-30T00:38:04;19.10;99.90
61253;DHT22;47127;47.516;8.596;2023-07-30T00:40:30;19.10;99.90
61253;DHT22;47127;47.516;8.596;2023-07-30T00:42:55;19.10;99.90
61253;DHT22;47127;47.516;8.596;2023-07-30T00:45:21;19.00;99.90
61253;DHT22;47127;47.516;8.596;2023-07-30T00:47:47;19.00;99.90
61253;DHT22;47127;47.516;8.596;2023-07-30T00:50:14;18.90;99.90
61253;DHT22;47127;47.516;8.596;2023-07-30T00:52:40;18.80;99.90
61253;DHT22;47127;47.516;8.596;2023-07-30T00:55:07;18.80;99.90
61253;DHT22;47127;47.516;8.596;2023-07-30T00:57:33;18.80;99.90
61253;DHT22;47127;47.516;8.596;2023-07-30T00:59:59;18.70;99.90
61253;DHT22;47127;47.516;8.596;2023-07-30T01:02:27;18.80;99.90
61253;DHT22;47127;47.516;8.596;2023-07-30T01:04:53;18.80;99.90
61253;DHT22;47127;47.516;8.596;2023-07-30T01:07:19;18.90;99.90
61253;DHT22;47127;47.516;8.596;2023-07-30T01:09:44;18.90;99.90
61253;DHT22;47127;47.516;8.596;2023-07-30T01:12:10;18.90;99.90
61253;DHT22;47127;47.516;8.596;2023-07-30T01:14:36;18.80;99.90
61253;DHT22;47127;47.516;8.596;2023-07-30T01:17:04;18.80;99.90
61253;DHT22;47127;47.516;8.596;2023-07-30T01:19:30;18.70;99.90
61253;DHT22;47127;47.516;8.596;2023-07-30T01:21:56;18.80;99.90
61253;DHT22;47127;47.516;8.596;2023-07-30T01:24:21;18.80;99.90
61253;DHT22;47127;47.516;8.596;2023-07-30T01:26:54;18.80;99.90
61253;DHT22;47127;47.516;8.596;2023-07-30T01:29:53;18.80;99.90
61253;DHT22;47127;47.516;8.596;2023-07-30T01:32:25;18.70;99.90
61253;DHT22;47127;47.516;8.596;2023-07-30T01:34:52;18.70;99.90
61253;DHT22;47127;47.516;8.596;2023-07-30T01:37:18;18.70;99.90
61253;DHT22;47127;47.516;8.596;2023-07-30T01:39:45;18.60;99.90
61253;DHT22;47127;47.516;8.596;2023-07-30T01:42:13;18.60;99.90
61253;DHT22;47127;47.516;8.596;2023-07-30T01:44:38;18.60;99.90
61253;DHT22;47127;47.516;8.596;2023-07-30T01:47:04;18.70;99.90
61253;DHT22;47127;47.516;8.596;2023-07-30T01:49:29;18.60;99.90
61253;DHT22;47127;47.516;8.596;2023-07-30T01:51:55;18.60;99.90
61253;DHT22;47127;47.516;8.596;2023-07-30T01:54:21;18.60;99.90
61253;DHT22;47127;47.516;8.596;2023-07-30T01:56:46;18.60;99.90
61253;DHT22;47127;47.516;8.596;2023-07-30T01:59:12;18.50;99.90
61253;DHT22;47127;47.516;8.596;2023-07-30T02:01:38;18.50;99.90
61253;DHT22;47127;47.516;8.596;2023-07-30T02:04:03;18.50;99.90
61253;DHT22;47127;47.516;8.596;2023-07-30T02:06:29;18.50;99.90
61253;DHT22;47127;47.516;8.596;2023-07-30T02:08:54;18.50;99.90
61253;DHT22;47127;47.516;8.596;2023-07-30T02:11:20;18.60;99.90
61253;DHT22;47127;47.516;8.596;2023-07-30T02:13:46;18.60;99.90
61253;DHT22;47127;47.516;8.596;2023-07-30T02:16:11;18.60;99.90
61253;DHT22;47127;47.516;8.596;2023-07-30T02:18:37;18.60;99.90
61253;DHT22;47127;47.516;8.596;2023-07-30T02:21:03;18.50;99.90
61253;DHT22;47127;47.516;8.596;2023-07-30T02:23:28;18.50;99.90
61253;DHT22;47127;47.516;8.596;2023-07-30T02:25:54;18.50;99.90
61253;DHT22;47127;47.516;8.596;2023-07-30T02:28:19;18.40;99.90
61253;DHT22;47127;47.516;8.596;2023-07-30T02:30:45;18.50;99.90
61253;DHT22;47127;47.516;8.596;2023-07-30T02:33:10;18.50;99.90
61253;DHT22;47127;47.516;8.596;2023-07-30T02:35:36;18.50;99.90
61253;DHT22;47127;47.516;8.596;2023-07-30T02:38:01;18.40;99.90
61253;DHT22;47127;47.516;8.596;2023-07-30T02:40:27;18.40;99.90
61253;DHT22;47127;47.516;8.596;2023-07-30T02:42:53;18.40;99.90
61253;DHT22;47127;47.516;8.596;2023-07-30T02:45:18;18.40;99.90
61253;DHT22;47127;47.516;8.596;2023-07-30T02:47:44;18.40;99.90
61253;DHT22;47127;47.516;8.596;2023-07-30T02:50:09;18.30;99.90
61253;DHT22;47127;47.516;8.596;2023-07-30T02:52:35;18.30;99.90
61253;DHT22;47127;47.516;8.596;2023-07-30T02:55:00;18.30;99.90
61253;DHT22;47127;47.516;8.596;2023-07-30T02:57:26;18.30;99.90
61253;DHT22;47127;47.516;8.596;2023-07-30T02:59:51;18.20;99.90
61253;DHT22;47127;47.516;8.596;2023-07-30T03:02:17;18.20;99.90
61253;DHT22;47127;47.516;8.596;2023-07-30T03:04:42;18.20;99.90
61253;DHT22;47127;47.516;8.596;2023-07-30T03:07:09;18.20;99.90
61253;DHT22;47127;47.516;8.596;2023-07-30T03:09:35;18.20;99.90
61253;DHT22;47127;47.516;8.596;2023-07-30T03:12:00;18.20;99.90
61253;DHT22;47127;47.516;8.596;2023-07-30T03:14:26;18.20;99.90
61253;DHT22;47127;47.516;8.596;2023-07-30T03:16:51;18.20;99.90
61253;DHT22;47127;47.516;8.596;2023-07-30T03:19:17;18.30;99.90
61253;DHT22;47127;47.516;8.596;2023-07-30T03:21:42;18.30;99.90
61253;DHT22;47127;47.516;8.596;2023-07-30T03:24:08;18.30;99.90
61253;DHT22;47127;47.516;8.596;2023-07-30T03:26:34;18.30;99.90
61253;DHT22;47127;47.516;8.596;2023-07-30T03:28:59;18.30;99.90
61253;DHT22;47127;47.516;8.596;2023-07-30T03:31:25;18.30;99.90
61253;DHT22;47127;47.516;8.596;2023-07-30T03:33:51;18.30;99.90
61253;DHT22;47127;47.516;8.596;2023-07-30T03:36:17;18.30;99.90
61253;DHT22;47127;47.516;8.596;2023-07-30T03:38:43;18.30;99.90
61253;DHT22;47127;47.516;8.596;2023-07-30T03:41:10;18.30;99.90
61253;DHT22;47127;47.516;8.596;2023-07-30T03:43:36;18.30;99.90
61253;DHT22;47127;47.516;8.596;2023-07-30T03:46:01;18.30;99.90
61253;DHT22;47127;47.516;8.596;2023-07-30T03:48:27;18.30;99.90
61253;DHT22;47127;47.516;8.596;2023-07-30T03:50:54;18.30;99.90
61253;DHT22;47127;47.516;8.596;2023-07-30T03:53:19;18.30;99.90
61253;DHT22;47127;47.516;8.596;2023-07-30T03:55:45;18.30;99.90
61253;DHT22;47127;47.516;8.596;2023-07-30T03:58:10;18.30;99.90
61253;DHT22;47127;47.516;8.596;2023-07-30T04:00:37;18.30;99.90
61253;DHT22;47127;47.516;8.596;2023-07-30T04:03:02;18.30;99.90
61253;DHT22;47127;47.516;8.596;2023-07-30T04:05:29;18.20;99.90
61253;DHT22;47127;47.516;8.596;2023-07-30T04:07:54;18.30;99.90
61253;DHT22;47127;47.516;8.596;2023-07-30T04:10:20;18.20;99.90
61253;DHT22;47127;47.516;8.596;2023-07-30T04:12:47;18.30;99.90
61253;DHT22;47127;47.516;8.596;2023-07-30T04:15:12;18.20;99.90
61253;DHT22;47127;47.516;8.596;2023-07-30T04:17:38;18.20;99.90
61253;DHT22;47127;47.516;8.596;2023-07-30T04:20:04;18.20;99.90
61253;DHT22;47127;47.516;8.596;2023-07-30T04:22:31;18.20;99.90
61253;DHT22;47127;47.516;8.596;2023-07-30T04:24:56;18.20;99.90
61253;DHT22;47127;47.516;8.596;2023-07-30T04:27:22;18.20;99.90
61253;DHT22;47127;47.516;8.596;2023-07-30T04:29:48;18.20;99.90
61253;DHT22;47127;47.516;8.596;2023-07-30T04:32:13;18.20;99.90
61253;DHT22;47127;47.516;8.596;2023-07-30T04:34:39;18.20;99.90
61253;DHT22;47127;47.516;8.596;2023-07-30T04:37:05;18.30;99.90
61253;DHT22;47127;47.516;8.596;2023-07-30T04:39:32;18.30;99.90
61253;DHT22;47127;47.516;8.596;2023-07-30T04:41:58;18.30;99.90
61253;DHT22;47127;47.516;8.596;2023-07-30T04:44:23;18.30;99.90
61253;DHT22;47127;47.516;8.596;2023-07-30T04:46:49;18.50;99.90
61253;DHT22;47127;47.516;8.596;2023-07-30T04:49:15;18.50;99.90
61253;DHT22;47127;47.516;8.596;2023-07-30T04:51:41;18.50;99.90
61253;DHT22;47127;47.516;8.596;2023-07-30T04:54:06;18.40;99.90
61253;DHT22;47127;47.516;8.596;2023-07-30T04:56:32;18.50;99.90
61253;DHT22;47127;47.516;8.596;2023-07-30T04:58:58;18.40;99.90
61253;DHT22;47127;47.516;8.596;2023-07-30T05:01:24;18.50;99.90
61253;DHT22;47127;47.516;8.596;2023-07-30T05:03:50;18.50;99.90
61253;DHT22;47127;47.516;8.596;2023-07-30T05:06:15;18.60;99.90
61253;DHT22;47127;47.516;8.596;2023-07-30T05:08:41;18.70;99.90
61253;DHT22;47127;47.516;8.596;2023-07-30T05:11:06;18.70;99.90
61253;DHT22;47127;47.516;8.596;2023-07-30T05:13:32;18.80;99.90
61253;DHT22;47127;47.516;8.596;2023-07-30T05:15:57;18.80;99.90
61253;DHT22;47127;47.516;8.596;2023-07-30T05:18:23;18.90;99.90
61253;DHT22;47127;47.516;8.596;2023-07-30T05:20:49;18.90;99.90
61253;DHT22;47127;47.516;8.596;2023-07-30T05:23:15;18.90;99.90
61253;DHT22;47127;47.516;8.596;2023-07-30T05:25:40;19.00;99.90
61253;DHT22;47127;47.516;8.596;2023-07-30T05:28:06;19.20;99.90
61253;DHT22;47127;47.516;8.596;2023-07-30T05:30:31;19.20;99.90
61253;DHT22;47127;47.516;8.596;2023-07-30T05:32:57;19.20;99.90
61253;DHT22;47127;47.516;8.596;2023-07-30T05:35:22;19.20;99.90
61253;DHT22;47127;47.516;8.596;2023-07-30T05:37:48;19.20;99.90
61253;DHT22;47127;47.516;8.596;2023-07-30T05:40:14;19.30;99.90
61253;DHT22;47127;47.516;8.596;2023-07-30T05:42:42;19.30;99.90
61253;DHT22;47127;47.516;8.596;2023-07-30T05:45:10;19.40;99.90
61253;DHT22;47127;47.516;8.596;2023-07-30T05:47:35;19.30;99.90
61253;DHT22;47127;47.516;8.596;2023-07-30T05:50:02;19.30;99.90
61253;DHT22;47127;47.516;8.596;2023-07-30T05:52:28;19.30;99.90
61253;DHT22;47127;47.516;8.596;2023-07-30T05:54:53;19.30;99.90
61253;DHT22;47127;47.516;8.596;2023-07-30T05:57:19;19.40;99.90
61253;DHT22;47127;47.516;8.596;2023-07-30T05:59:44;19.30;99.90
61253;DHT22;47127;47.516;8.596;2023-07-30T06:02:10;19.20;99.90
61253;DHT22;47127;47.516;8.596;2023-07-30T06:04:35;19.20;99.90
61253;DHT22;47127;47.516;8.596;2023-07-30T06:07:02;19.30;99.90
61253;DHT22;47127;47.516;8.596;2023-07-30T06:09:28;19.40;99.90
61253;DHT22;47127;47.516;8.596;2023-07-30T06:11:54;19.40;99.90
61253;DHT22;47127;47.516;8.596;2023-07-30T06:14:20;19.50;99.90
61253;DHT22;47127;47.516;8.596;2023-07-30T06:16:45;19.50;99.90
61253;DHT22;47127;47.516;8.596;2023-07-30T06:19:11;19.50;99.90
61253;DHT22;47127;47.516;8.596;2023-07-30T06:21:36;19.50;99.90
61253;DHT22;47127;47.516;8.596;2023-07-30T06:24:02;19.60;99.90
61253;DHT22;47127;47.516;8.596;2023-07-30T06:26:28;19.60;99.90
61253;DHT22;47127;47.516;8.596;2023-07-30T06:28:53;19.70;99.90
61253;DHT22;47127;47.516;8.596;2023-07-30T06:31:19;19.70;99.90
61253;DHT22;47127;47.516;8.596;2023-07-30T06:33:44;19.70;99.90
61253;DHT22;47127;47.516;8.596;2023-07-30T06:36:10;19.80;99.90
61253;DHT22;47127;47.516;8.596;2023-07-30T06:38:35;19.70;99.90
61253;DHT22;47127;47.516;8.596;2023-07-30T06:41:01;19.80;99.90
61253;DHT22;47127;47.516;8.596;2023-07-30T06:43:28;19.80;99.90
61253;DHT22;47127;47.516;8.596;2023-07-30T06:45:53;19.90;99.90
61253;DHT22;47127;47.516;8.596;2023-07-30T06:48:20;20.00;99.90
61253;DHT22;47127;47.516;8.596;2023-07-30T06:50:46;20.00;99.90
61253;DHT22;47127;47.516;8.596;2023-07-30T06:53:11;20.10;99.90
61253;DHT22;47127;47.516;8.596;2023-07-30T06:55:37;20.10;99.90
61253;DHT22;47127;47.516;8.596;2023-07-30T06:58:03;20.10;99.90
61253;DHT22;47127;47.516;8.596;2023-07-30T07:00:29;20.20;99.90
61253;DHT22;47127;47.516;8.596;2023-07-30T07:02:54;20.30;99.90
61253;DHT22;47127;47.516;8.596;2023-07-30T07:05:20;20.40;99.90
61253;DHT22;47127;47.516;8.596;2023-07-30T07:07:45;20.40;99.90
61253;DHT22;47127;47.516;8.596;2023-07-30T07:10:11;20.40;99.90
61253;DHT22;47127;47.516;8.596;2023-07-30T07:12:38;20.30;99.90
61253;DHT22;47127;47.516;8.596;2023-07-30T07:15:04;20.20;99.90
61253;DHT22;47127;47.516;8.596;2023-07-30T07:17:30;20.20;99.90
61253;DHT22;47127;47.516;8.596;2023-07-30T07:19:57;20.40;99.90
61253;DHT22;47127;47.516;8.596;2023-07-30T07:22:25;20.50;99.90
61253;DHT22;47127;47.516;8.596;2023-07-30T07:24:51;20.60;99.90
61253;DHT22;47127;47.516;8.596;2023-07-30T07:27:20;20.70;99.90
61253;DHT22;47127;47.516;8.596;2023-07-30T07:29:46;20.90;99.90
61253;DHT22;47127;47.516;8.596;2023-07-30T07:32:11;20.90;99.90
61253;DHT22;47127;47.516;8.596;2023-07-30T07:34:37;20.70;99.90
61253;DHT22;47127;47.516;8.596;2023-07-30T07:37:02;20.60;99.90
61253;DHT22;47127;47.516;8.596;2023-07-30T07:39:29;20.50;99.90
61253;DHT22;47127;47.516;8.596;2023-07-30T07:41:55;20.60;99.90
61253;DHT22;47127;47.516;8.596;2023-07-30T07:44:20;20.70;99.90
61253;DHT22;47127;47.516;8.596;2023-07-30T07:46:47;20.70;99.90
61253;DHT22;47127;47.516;8.596;2023-07-30T07:49:12;20.80;99.90
61253;DHT22;47127;47.516;8.596;2023-07-30T07:51:38;21.00;99.90
61253;DHT22;47127;47.516;8.596;2023-07-30T07:54:04;21.00;99.90
61253;DHT22;47127;47.516;8.596;2023-07-30T07:56:30;21.00;99.90
61253;DHT22;47127;47.516;8.596;2023-07-30T07:58:56;20.90;99.90
61253;DHT22;47127;47.516;8.596;2023-07-30T08:01:22;20.80;99.90
61253;DHT22;47127;47.516;8.596;2023-07-30T08:03:48;20.70;99.90
61253;DHT22;47127;47.516;8.596;2023-07-30T08:06:13;20.70;99.90
61253;DHT22;47127;47.516;8.596;2023-07-30T08:08:39;20.90;99.90
61253;DHT22;47127;47.516;8.596;2023-07-30T08:11:08;20.90;99.90
61253;DHT22;47127;47.516;8.596;2023-07-30T08:13:34;20.80;99.90
61253;DHT22;47127;47.516;8.596;2023-07-30T08:16:00;20.80;99.90
61253;DHT22;47127;47.516;8.596;2023-07-30T08:18:26;21.00;99.90
61253;DHT22;47127;47.516;8.596;2023-07-30T08:20:51;21.00;99.90
61253;DHT22;47127;47.516;8.596;2023-07-30T08:23:17;21.00;99.90
61253;DHT22;47127;47.516;8.596;2023-07-30T08:25:42;21.00;99.90
61253;DHT22;47127;47.516;8.596;2023-07-30T08:28:08;21.10;99.90
61253;DHT22;47127;47.516;8.596;2023-07-30T08:30:34;21.00;99.90
61253;DHT22;47127;47.516;8.596;2023-07-30T08:32:59;21.10;99.90
61253;DHT22;47127;47.516;8.596;2023-07-30T08:35:25;21.10;99.90
61253;DHT22;47127;47.516;8.596;2023-07-30T08:37:52;21.10;99.90
61253;DHT22;47127;47.516;8.596;2023-07-30T08:40:18;21.10;99.90
61253;DHT22;47127;47.516;8.596;2023-07-30T08:42:43;21.20;99.90
61253;DHT22;47127;47.516;8.596;2023-07-30T08:45:09;21.50;99.90
61253;DHT22;47127;47.516;8.596;2023-07-30T08:47:35;21.50;99.90
61253;DHT22;47127;47.516;8.596;2023-07-30T08:50:01;21.30;99.90
61253;DHT22;47127;47.516;8.596;2023-07-30T08:52:27;20.90;99.90
61253;DHT22;47127;47.516;8.596;2023-07-30T08:54:55;20.60;99.90
61253;DHT22;47127;47.516;8.596;2023-07-30T08:57:25;20.50;99.90
61253;DHT22;47127;47.516;8.596;2023-07-30T08:59:57;20.40;99.90
61253;DHT22;47127;47.516;8.596;2023-07-30T09:03:17;20.40;99.90
61253;DHT22;47127;47.516;8.596;2023-07-30T09:05:26;20.40;99.90
61253;DHT22;47127;47.516;8.596;2023-07-30T09:07:57;20.30;99.90
61253;DHT22;47127;47.516;8.596;2023-07-30T09:10:23;19.90;99.90
61253;DHT22;47127;47.516;8.596;2023-07-30T09:12:57;19.40;99.90
61253;DHT22;47127;47.516;8.596;2023-07-30T09:15:30;19.10;99.90
61253;DHT22;47127;47.516;8.596;2023-07-30T09:18:00;19.10;99.90
61253;DHT22;47127;47.516;8.596;2023-07-30T09:20:26;19.10;99.90
61253;DHT22;47127;47.516;8.596;2023-07-30T09:22:52;19.30;99.90
61253;DHT22;47127;47.516;8.596;2023-07-30T09:25:18;19.30;99.90
61253;DHT22;47127;47.516;8.596;2023-07-30T09:27:49;19.50;99.90
61253;DHT22;47127;47.516;8.596;2023-07-30T09:30:15;19.60;99.90
61253;DHT22;47127;47.516;8.596;2023-07-30T09:32:54;19.90;99.90
61253;DHT22;47127;47.516;8.596;2023-07-30T09:35:20;20.10;99.90
61253;DHT22;47127;47.516;8.596;2023-07-30T09:37:46;20.30;99.90
61253;DHT22;47127;47.516;8.596;2023-07-30T09:40:15;20.50;99.90
61253;DHT22;47127;47.516;8.596;2023-07-30T09:42:45;20.50;99.90
61253;DHT22;47127;47.516;8.596;2023-07-30T09:45:20;20.50;99.90
61253;DHT22;47127;47.516;8.596;2023-07-30T09:47:47;20.60;99.90
61253;DHT22;47127;47.516;8.596;2023-07-30T09:50:14;20.60;99.90
61253;DHT22;47127;47.516;8.596;2023-07-30T09:52:40;20.50;99.90
61253;DHT22;47127;47.516;8.596;2023-07-30T09:55:07;20.50;99.90
61253;DHT22;47127;47.516;8.596;2023-07-30T09:57:33;20.60;99.90
61253;DHT22;47127;47.516;8.596;2023-07-30T09:59:58;20.70;99.90
61253;DHT22;47127;47.516;8.596;2023-07-30T10:02:25;20.80;99.90
61253;DHT22;47127;47.516;8.596;2023-07-30T10:04:53;20.80;99.90
61253;DHT22;47127;47.516;8.596;2023-07-30T10:07:23;21.00;99.90
61253;DHT22;47127;47.516;8.596;2023-07-30T10:09:52;20.90;99.90
61253;DHT22;47127;47.516;8.596;2023-07-30T10:12:28;21.20;99.90
61253;DHT22;47127;47.516;8.596;2023-07-30T10:14:56;21.20;99.90
61253;DHT22;47127;47.516;8.596;2023-07-30T10:17:21;21.10;99.90
61253;DHT22;47127;47.516;8.596;2023-07-30T10:19:50;20.80;99.90
61253;DHT22;47127;47.516;8.596;2023-07-30T10:22:23;20.60;99.90
61253;DHT22;47127;47.516;8.596;2023-07-30T10:25:03;20.70;99.90
61253;DHT22;47127;47.516;8.596;2023-07-30T10:27:38;20.80;99.90
61253;DHT22;47127;47.516;8.596;2023-07-30T10:30:14;21.00;99.90
61253;DHT22;47127;47.516;8.596;2023-07-30T10:35:42;21.40;99.90
61253;DHT22;47127;47.516;8.596;2023-07-30T10:38:22;21.50;99.90
61253;DHT22;47127;47.516;8.596;2023-07-30T10:41:07;21.60;99.90
61253;DHT22;47127;47.516;8.596;2023-07-30T10:43:46;21.70;99.90
61253;DHT22;47127;47.516;8.596;2023-07-30T10:46:14;21.90;99.90
61253;DHT22;47127;47.516;8.596;2023-07-30T10:48:42;22.00;99.90
61253;DHT22;47127;47.516;8.596;2023-07-30T10:51:13;21.70;99.90
61253;DHT22;47127;47.516;8.596;2023-07-30T10:53:39;21.60;99.90
61253;DHT22;47127;47.516;8.596;2023-07-30T10:56:07;21.70;99.90
61253;DHT22;47127;47.516;8.596;2023-07-30T10:58:36;21.90;99.90
61253;DHT22;47127;47.516;8.596;2023-07-30T11:01:03;22.10;99.90
61253;DHT22;47127;47.516;8.596;2023-07-30T11:03:29;22.00;99.90
61253;DHT22;47127;47.516;8.596;2023-07-30T11:05:56;22.10;99.90
61253;DHT22;47127;47.516;8.596;2023-07-30T11:08:52;22.30;99.90
61253;DHT22;47127;47.516;8.596;2023-07-30T11:11:17;22.50;99.90
61253;DHT22;47127;47.516;8.596;2023-07-30T11:13:45;22.60;99.90
61253;DHT22;47127;47.516;8.596;2023-07-30T11:16:16;22.60;99.90
61253;DHT22;47127;47.516;8.596;2023-07-30T11:18:42;22.50;99.90
61253;DHT22;47127;47.516;8.596;2023-07-30T11:21:13;22.50;99.90
61253;DHT22;47127;47.516;8.596;2023-07-30T11:23:40;22.30;99.90
61253;DHT22;47127;47.516;8.596;2023-07-30T11:26:16;22.40;99.90
61253;DHT22;47127;47.516;8.596;2023-07-30T11:28:42;22.60;99.90
61253;DHT22;47127;47.516;8.596;2023-07-30T11:31:18;22.60;99.90
61253;DHT22;47127;47.516;8.596;2023-07-30T11:33:48;22.50;99.90
61253;DHT22;47127;47.516;8.596;2023-07-30T11:36:16;22.70;99.90
61253;DHT22;47127;47.516;8.596;2023-07-30T11:38:43;22.70;99.90
61253;DHT22;47127;47.516;8.596;2023-07-30T11:41:10;22.90;99.90
61253;DHT22;47127;47.516;8.596;2023-07-30T11:43:38;22.90;99.90
61253;DHT22;47127;47.516;8.596;2023-07-30T11:46:15;23.00;99.20
61253;DHT22;47127;47.516;8.596;2023-07-30T11:48:43;22.80;99.40
61253;DHT22;47127;47.516;8.596;2023-07-30T11:51:26;22.80;99.00
61253;DHT22;47127;47.516;8.596;2023-07-30T11:53:54;22.90;98.60
61253;DHT22;47127;47.516;8.596;2023-07-30T11:58:47;23.00;98.00
61253;DHT22;47127;47.516;8.596;2023-07-30T12:01:16;23.10;97.70
61253;DHT22;47127;47.516;8.596;2023-07-30T12:03:45;23.40;97.90
61253;DHT22;47127;47.516;8.596;2023-07-30T12:06:11;23.60;96.30
61253;DHT22;47127;47.516;8.596;2023-07-30T12:08:37;23.50;95.80
61253;DHT22;47127;47.516;8.596;2023-07-30T12:11:08;23.40;95.30
61253;DHT22;47127;47.516;8.596;2023-07-30T12:13:41;23.30;95.60
61253;DHT22;47127;47.516;8.596;2023-07-30T12:16:07;23.40;96.40
61253;DHT22;47127;47.516;8.596;2023-07-30T12:18:33;23.50;94.60
61253;DHT22;47127;47.516;8.596;2023-07-30T12:20:58;23.70;94.60
61253;DHT22;47127;47.516;8.596;2023-07-30T12:23:24;23.70;94.10
61253;DHT22;47127;47.516;8.596;2023-07-30T12:25:50;23.60;94.10
61253;DHT22;47127;47.516;8.596;2023-07-30T12:28:16;23.50;95.00
61253;DHT22;47127;47.516;8.596;2023-07-30T12:30:41;23.70;95.10
61253;DHT22;47127;47.516;8.596;2023-07-30T12:33:07;23.80;93.90
61253;DHT22;47127;47.516;8.596;2023-07-30T12:35:33;23.80;94.10
61253;DHT22;47127;47.516;8.596;2023-07-30T12:37:59;24.00;93.80
61253;DHT22;47127;47.516;8.596;2023-07-30T12:40:25;24.00;93.80
61253;DHT22;47127;47.516;8.596;2023-07-30T12:42:50;23.80;93.90
61253;DHT22;47127;47.516;8.596;2023-07-30T12:45:16;24.00;93.10
61253;DHT22;47127;47.516;8.596;2023-07-30T12:47:42;24.00;93.40
61253;DHT22;47127;47.516;8.596;2023-07-30T12:50:08;24.20;93.10
61253;DHT22;47127;47.516;8.596;2023-07-30T12:52:34;24.10;92.70
61253;DHT22;47127;47.516;8.596;2023-07-30T12:55:00;23.80;93.00
61253;DHT22;47127;47.516;8.596;2023-07-30T12:57:26;23.80;93.30
61253;DHT22;47127;47.516;8.596;2023-07-30T12:59:52;24.00;92.60
61253;DHT22;47127;47.516;8.596;2023-07-30T13:02:17;24.30;91.90
61253;DHT22;47127;47.516;8.596;2023-07-30T13:04:43;24.30;92.10
61253;DHT22;47127;47.516;8.596;2023-07-30T13:07:08;24.10;92.70
61253;DHT22;47127;47.516;8.596;2023-07-30T13:09:34;24.30;91.80
61253;DHT22;47127;47.516;8.596;2023-07-30T13:11:59;24.50;92.00
61253;DHT22;47127;47.516;8.596;2023-07-30T13:14:25;24.50;90.70
61253;DHT22;47127;47.516;8.596;2023-07-30T13:16:50;24.70;89.20
61253;DHT22;47127;47.516;8.596;2023-07-30T13:19:16;25.00;88.60
61253;DHT22;47127;47.516;8.596;2023-07-30T13:21:42;24.80;89.90
61253;DHT22;47127;47.516;8.596;2023-07-30T13:24:07;24.70;86.60
61253;DHT22;47127;47.516;8.596;2023-07-30T13:26:33;24.60;85.80
61253;DHT22;47127;47.516;8.596;2023-07-30T13:28:58;24.70;85.20
61253;DHT22;47127;47.516;8.596;2023-07-30T13:31:24;24.90;83.90
61253;DHT22;47127;47.516;8.596;2023-07-30T13:33:49;25.00;83.80
61253;DHT22;47127;47.516;8.596;2023-07-30T13:36:16;25.10;83.10
61253;DHT22;47127;47.516;8.596;2023-07-30T13:38:42;25.10;79.70
61253;DHT22;47127;47.516;8.596;2023-07-30T13:41:09;25.10;76.70
61253;DHT22;47127;47.516;8.596;2023-07-30T13:43:34;25.10;74.90
61253;DHT22;47127;47.516;8.596;2023-07-30T13:46:00;25.20;74.50
61253;DHT22;47127;47.516;8.596;2023-07-30T13:48:26;24.90;72.90
61253;DHT22;47127;47.516;8.596;2023-07-30T13:50:51;24.70;72.00
61253;DHT22;47127;47.516;8.596;2023-07-30T13:53:17;24.60;72.90
61253;DHT22;47127;47.516;8.596;2023-07-30T13:55:43;24.40;74.80
61253;DHT22;47127;47.516;8.596;2023-07-30T13:58:10;24.60;73.60
61253;DHT22;47127;47.516;8.596;2023-07-30T14:00:35;24.70;75.50
61253;DHT22;47127;47.516;8.596;2023-07-30T14:03:01;24.90;74.80
61253;DHT22;47127;47.516;8.596;2023-07-30T14:05:27;24.90;74.50
61253;DHT22;47127;47.516;8.596;2023-07-30T14:07:54;24.90;75.90
61253;DHT22;47127;47.516;8.596;2023-07-30T14:10:22;24.90;74.80
61253;DHT22;47127;47.516;8.596;2023-07-30T14:12:47;25.00;75.90
61253;DHT22;47127;47.516;8.596;2023-07-30T14:15:13;25.20;75.60
61253;DHT22;47127;47.516;8.596;2023-07-30T14:17:42;25.40;76.20
61253;DHT22;47127;47.516;8.596;2023-07-30T14:20:08;25.50;75.60
61253;DHT22;47127;47.516;8.596;2023-07-30T14:22:35;25.10;76.60
61253;DHT22;47127;47.516;8.596;2023-07-30T14:25:04;25.10;76.10
61253;DHT22;47127;47.516;8.596;2023-07-30T14:27:29;25.20;77.20
61253;DHT22;47127;47.516;8.596;2023-07-30T14:29:55;25.50;76.60
61253;DHT22;47127;47.516;8.596;2023-07-30T14:32:21;25.70;76.60
61253;DHT22;47127;47.516;8.596;2023-07-30T14:34:46;25.70;76.70
61253;DHT22;47127;47.516;8.596;2023-07-30T14:37:12;25.70;75.70
61253;DHT22;47127;47.516;8.596;2023-07-30T14:39:38;25.70;74.50
61253;DHT22;47127;47.516;8.596;2023-07-30T14:42:04;25.70;74.00
61253;DHT22;47127;47.516;8.596;2023-07-30T14:44:30;25.50;73.90
61253;DHT22;47127;47.516;8.596;2023-07-30T14:46:56;25.30;73.20
61253;DHT22;47127;47.516;8.596;2023-07-30T14:49:23;25.10;74.80
61253;DHT22;47127;47.516;8.596;2023-07-30T14:51:49;25.00;74.20
61253;DHT22;47127;47.516;8.596;2023-07-30T14:54:17;24.90;74.80
61253;DHT22;47127;47.516;8.596;2023-07-30T14:56:43;25.00;74.40
61253;DHT22;47127;47.516;8.596;2023-07-30T14:59:09;25.00;74.30
61253;DHT22;47127;47.516;8.596;2023-07-30T15:01:34;25.10;76.40
61253;DHT22;47127;47.516;8.596;2023-07-30T15:04:00;25.30;73.70
61253;DHT22;47127;47.516;8.596;2023-07-30T15:06:28;24.90;75.20
61253;DHT22;47127;47.516;8.596;2023-07-30T15:08:54;24.80;75.00
61253;DHT22;47127;47.516;8.596;2023-07-30T15:11:20;24.60;76.30
61253;DHT22;47127;47.516;8.596;2023-07-30T15:13:45;25.00;75.80
61253;DHT22;47127;47.516;8.596;2023-07-30T15:16:11;25.00;75.10
61253;DHT22;47127;47.516;8.596;2023-07-30T15:18:37;25.00;75.20
61253;DHT22;47127;47.516;8.596;2023-07-30T15:21:03;24.90;75.40
61253;DHT22;47127;47.516;8.596;2023-07-30T15:23:28;24.80;75.60
61253;DHT22;47127;47.516;8.596;2023-07-30T15:25:54;25.00;75.30
61253;DHT22;47127;47.516;8.596;2023-07-30T15:28:20;25.10;75.00
61253;DHT22;47127;47.516;8.596;2023-07-30T15:30:47;25.40;75.00
61253;DHT22;47127;47.516;8.596;2023-07-30T15:33:13;25.30;76.60